»·PEaware :: N6182G KVNY-KSAN

N6182G :: KVNY-KSAN

FLIGHT INFORMATION

Flight Status: Arrived
Operator: Privately registered:
United States
More flights under this callsign
Pilot: Matthew M. (8235)
Aircraft: CESSNA 182 SKYLANE
(C182)
More flights by this aircraft type
Origin: KVNY Van Nuys
United States
Destination: KSAN San Diego Intl-Lindbergh
United States
More flights between these airports :: More routes between these airports
Route:
File this flight plan on PilotEdge
Remarks:
Altitude:
(Current/Filed)
3,500ft
Speed:
(Current/Filed)
120kts
Departed: 28-Jul-20 04:12 PM
Arrived: 28-Jul-20 05:05 PM
Distance/Time
Traveled:
110nm/0:52
Distance/Time
To Go:
Arrived

Flight Plot

Page will automatically refresh every two minutes.


Map Options




Map Legend


Flown Route
Filed Route
Departure Airport
Arrival Airport
Navaid (VOR, NDB)
Fix

Horizontal Profiles

Position Reports

Time Latitude Longitude Heading Altitude Ground
Speed
28-Jul-20 16:07 34.209065 -118.491913 135 805ft 0kts
28-Jul-20 16:08 34.209888 -118.491685 7 805ft 10kts
28-Jul-20 16:09 34.217234 -118.492120 354 805ft 30kts
28-Jul-20 16:10 34.218017 -118.491721 74 805ft 0kts
28-Jul-20 16:11 34.213467 -118.490744 167 840ft 66kts
28-Jul-20 16:12 34.188654 -118.491363 182 1617ft 102kts
28-Jul-20 16:13 34.161995 -118.495540 181 2370ft 96kts
28-Jul-20 16:14 34.132145 -118.497791 183 2992ft 115kts
28-Jul-20 16:15 34.098141 -118.496861 177 3435ft 136kts
28-Jul-20 16:16 34.058041 -118.487383 180 3445ft 151kts
28-Jul-20 16:17 34.026454 -118.468735 169 3462ft 141kts
28-Jul-20 16:18 33.994407 -118.443683 144 3458ft 134kts
28-Jul-20 16:19 33.963113 -118.416861 144 3472ft 144kts
28-Jul-20 16:20 33.929965 -118.388482 144 3466ft 148kts
28-Jul-20 16:21 33.896470 -118.359857 144 3463ft 149kts
28-Jul-20 16:22 33.864159 -118.332201 145 3449ft 140kts
28-Jul-20 16:23 33.832903 -118.305462 144 3446ft 136kts
28-Jul-20 16:24 33.803725 -118.277399 127 3465ft 134kts
28-Jul-20 16:25 33.782758 -118.240906 124 3463ft 136kts
28-Jul-20 16:26 33.763980 -118.201428 116 3461ft 137kts
28-Jul-20 16:27 33.747127 -118.159324 116 3457ft 143kts
28-Jul-20 16:28 33.725275 -118.120746 126 3453ft 137kts
28-Jul-20 16:29 33.702178 -118.084811 133 3465ft 135kts
28-Jul-20 16:30 33.677210 -118.050850 130 3467ft 138kts
28-Jul-20 16:31 33.653523 -118.014119 127 3466ft 139kts
28-Jul-20 16:32 33.629860 -117.977347 127 3465ft 139kts
28-Jul-20 16:33 33.606273 -117.940650 127 3465ft 139kts
28-Jul-20 16:34 33.582602 -117.903773 127 3465ft 139kts
28-Jul-20 16:35 33.558577 -117.867437 132 3465ft 139kts
28-Jul-20 16:36 33.532846 -117.832764 132 3464ft 139kts
28-Jul-20 16:37 33.507247 -117.798183 131 3465ft 139kts
28-Jul-20 16:38 33.481523 -117.763561 131 3464ft 139kts
28-Jul-20 16:39 33.455791 -117.728860 131 3464ft 138kts
28-Jul-20 16:40 33.430067 -117.694259 131 3464ft 139kts
28-Jul-20 16:41 33.404454 -117.659464 132 3464ft 139kts
28-Jul-20 16:42 33.378693 -117.624575 131 3462ft 140kts
28-Jul-20 16:43 33.352364 -117.590365 137 3464ft 139kts
28-Jul-20 16:44 33.324319 -117.558442 136 3465ft 140kts
28-Jul-20 16:45 33.296133 -117.526298 136 3464ft 140kts
28-Jul-20 16:46 33.268469 -117.494774 136 3469ft 140kts
28-Jul-20 16:47 33.240260 -117.462596 136 3469ft 140kts
28-Jul-20 16:48 33.212041 -117.430480 136 3471ft 139kts
28-Jul-20 16:49 33.184069 -117.398632 136 3474ft 140kts
28-Jul-20 16:50 33.154330 -117.368899 151 3473ft 139kts
28-Jul-20 16:51 33.120018 -117.347658 163 3473ft 139kts
28-Jul-20 16:52 33.084355 -117.333269 161 3474ft 139kts
28-Jul-20 16:53 33.047573 -117.318305 162 3474ft 139kts
28-Jul-20 16:54 33.010922 -117.303437 161 3475ft 139kts
28-Jul-20 16:55 32.974485 -117.289930 165 3476ft 139kts
28-Jul-20 16:56 32.937025 -117.277337 164 3480ft 139kts
28-Jul-20 16:57 32.899723 -117.264733 164 3481ft 139kts
28-Jul-20 16:58 32.862309 -117.251794 159 3384ft 144kts
28-Jul-20 16:59 32.826539 -117.228819 151 2890ft 146kts
28-Jul-20 17:00 32.790921 -117.208265 162 2393ft 120kts
28-Jul-20 17:01 32.764382 -117.196642 161 1563ft 95kts
28-Jul-20 17:02 32.747615 -117.174492 104 1252ft 99kts
28-Jul-20 17:03 32.729400 -117.166083 241 578ft 73kts
28-Jul-20 17:04 32.732121 -117.181994 1 18ft 11kts
28-Jul-20 17:05 32.733697 -117.179377 59 18ft 12kts
28-Jul-20 17:06 32.733803 -117.178587 252 18ft 0kts
28-Jul-20 17:07 32.733803 -117.178587 252 18ft 0kts
28-Jul-20 17:08 32.733803 -117.178587 252 18ft 0kts
28-Jul-20 17:09 32.733803 -117.178587 252 18ft 0kts
28-Jul-20 17:10 32.733803 -117.178587 252 18ft 0kts
28-Jul-20 17:12 32.733803 -117.178587 252 18ft 0kts
28-Jul-20 17:13 32.733803 -117.178587 252 18ft 0kts
28-Jul-20 17:14 32.733803 -117.178587 252 18ft 0kts
28-Jul-20 17:15 32.733803 -117.178587 252 18ft 0kts
28-Jul-20 17:16 32.733803 -117.178587 252 18ft 0kts
28-Jul-20 17:17 32.733803 -117.178587 252 18ft 0kts
28-Jul-20 17:18 32.733803 -117.178587 252 18ft 0kts

Navigation Log

Ident Type
Flight plan parsing failed, navigation log unavailable